createdAt,value
2022-10-22T00:02:11.524Z,97612.25
2022-10-22T00:07:03.185Z,97626.44
2022-10-22T00:11:54.897Z,97629.44
2022-10-22T00:16:46.742Z,97642.53
2022-10-22T00:21:38.454Z,97650.69
2022-10-22T00:26:30.210Z,97649.84
2022-10-22T00:31:21.944Z,97661.84
2022-10-22T00:36:14.896Z,97664.03
2022-10-22T00:41:06.807Z,97678.19
2022-10-22T00:45:58.489Z,97677.91
2022-10-22T00:50:56.964Z,97679.00
2022-10-22T00:55:53.065Z,97689.06
2022-10-22T01:00:45.152Z,97693.16
2022-10-22T01:05:56.133Z,97710.03
2022-10-22T01:10:50.744Z,97721.22
2022-10-22T01:16:07.503Z,97730.47
2022-10-22T01:20:59.094Z,97737.53
2022-10-22T01:26:17.740Z,97736.97
2022-10-22T01:31:13.718Z,97745.13
2022-10-22T01:36:05.789Z,97747.84
2022-10-22T01:40:58.652Z,97756.53
2022-10-22T01:45:54.617Z,97761.97
2022-10-22T01:51:11.296Z,97760.91
2022-10-22T01:56:24.680Z,97776.69
2022-10-22T02:01:34.879Z,97773.44
2022-10-22T02:06:30.696Z,97781.88
2022-10-22T02:11:22.864Z,97782.16
2022-10-22T02:16:21.055Z,97793.59
2022-10-22T02:21:13.059Z,97796.88
2022-10-22T02:26:15.107Z,97802.59
2022-10-22T02:31:15.270Z,97802.31
2022-10-22T02:36:08.456Z,97813.75
2022-10-22T02:41:00.681Z,97819.47
2022-10-22T02:45:52.595Z,97830.63
2022-10-22T02:50:44.401Z,97834.75
2022-10-22T02:55:36.117Z,97848.88
2022-10-22T03:00:28.440Z,97856.22
2022-10-22T03:05:20.185Z,97868.22
2022-10-22T03:10:12.001Z,97863.88
2022-10-22T03:15:04.569Z,97865.00
2022-10-22T03:19:56.400Z,97879.69
2022-10-22T03:24:53.567Z,97887.84
2022-10-22T03:29:47.022Z,97891.09
2022-10-22T03:34:38.749Z,97900.91
2022-10-22T03:39:33.646Z,97906.88
2022-10-22T03:44:26.230Z,97911.25
2022-10-22T03:49:17.885Z,97913.69
2022-10-22T03:54:09.523Z,97915.59
2022-10-22T03:59:03.036Z,97918.06
2022-10-22T04:03:55.437Z,97935.41
2022-10-22T04:08:47.216Z,97957.38
2022-10-22T04:13:38.992Z,97973.41
2022-10-22T04:18:30.710Z,97965.78
2022-10-22T04:23:22.578Z,97974.44
2022-10-22T04:28:14.273Z,97990.44
2022-10-22T04:33:06.088Z,97986.91
2022-10-22T04:37:57.790Z,97987.41
2022-10-22T04:42:49.710Z,97992.28
2022-10-22T04:47:41.875Z,98006.34
2022-10-22T04:52:33.977Z,98011.22
2022-10-22T04:57:30.301Z,98022.28
2022-10-22T05:02:22.208Z,98019.53
2022-10-22T05:07:14.464Z,98027.66
2022-10-22T05:12:06.534Z,98042.81
2022-10-22T05:16:58.511Z,98029.53
2022-10-22T05:21:51.600Z,98037.91
2022-10-22T05:26:43.292Z,98055.53
2022-10-22T05:31:35.334Z,98067.72
2022-10-22T05:36:27.773Z,98074.75
2022-10-22T05:41:25.196Z,98072.00
2022-10-22T05:46:22.509Z,98080.66
2022-10-22T05:51:14.724Z,98080.03
2022-10-22T05:56:09.300Z,98091.41
2022-10-22T06:01:05.505Z,98097.34
2022-10-22T06:05:57.240Z,98106.78
2022-10-22T06:10:49.028Z,98118.38
2022-10-22T06:15:40.640Z,98112.38
2022-10-22T06:20:34.576Z,98121.56
2022-10-22T06:25:26.282Z,98125.03
2022-10-22T06:30:18.035Z,98131.75
2022-10-22T06:35:09.723Z,98134.47
2022-10-22T06:40:01.348Z,98133.09
2022-10-22T06:44:53.093Z,98148.00
2022-10-22T06:49:44.780Z,98157.78
2022-10-22T06:54:36.559Z,98158.63
2022-10-22T06:59:28.232Z,98156.97
2022-10-22T07:04:19.978Z,98180.06
2022-10-22T07:09:11.690Z,98189.28
2022-10-22T07:14:03.640Z,98197.16
2022-10-22T07:18:55.241Z,98198.78
2022-10-22T07:23:47.311Z,98201.47
2022-10-22T07:28:41.022Z,98215.38
2022-10-22T07:33:32.828Z,98228.41
2022-10-22T07:38:24.601Z,98231.97
2022-10-22T07:43:16.276Z,98246.91
2022-10-22T07:48:08.042Z,98257.06
2022-10-22T07:53:00.016Z,98264.88
2022-10-22T07:57:51.749Z,98277.06
2022-10-22T08:02:43.577Z,98290.50
2022-10-22T08:07:35.800Z,98304.03
2022-10-22T08:12:27.587Z,98300.94
2022-10-22T08:17:19.150Z,98306.00
2022-10-22T08:22:10.892Z,98313.38
2022-10-22T08:27:02.633Z,98329.78
2022-10-22T08:31:54.524Z,98325.31
2022-10-22T08:36:46.687Z,98336.06
2022-10-22T08:41:53.986Z,98346.66
2022-10-22T08:47:01.363Z,98336.44
2022-10-22T08:51:53.613Z,98339.44
2022-10-22T08:56:53.728Z,98339.34
2022-10-22T09:01:48.122Z,98344.44
2022-10-22T09:06:44.428Z,98350.25
2022-10-22T09:11:40.181Z,98365.16
2022-10-22T09:16:53.307Z,98357.53
2022-10-22T09:22:08.201Z,98349.25
2022-10-22T09:27:00.248Z,98351.63
2022-10-22T09:31:51.867Z,98359.41
2022-10-22T09:36:43.424Z,98359.75
2022-10-22T09:41:35.436Z,98359.25
2022-10-22T09:46:39.821Z,98351.34
2022-10-22T09:52:21.589Z,98367.09
2022-10-22T09:57:22.059Z,98373.16
2022-10-22T10:02:37.018Z,98381.50
2022-10-22T10:07:34.516Z,98385.31
2022-10-22T10:12:43.586Z,98393.41
2022-10-22T10:18:20.231Z,98394.97
2022-10-22T10:23:26.739Z,98396.13
2022-10-22T10:28:36.742Z,98409.59
2022-10-22T10:33:32.959Z,98412.25
2022-10-22T10:38:54.309Z,98410.50
2022-10-22T10:44:09.901Z,98415.56
2022-10-22T10:49:25.919Z,98414.59
2022-10-22T10:54:40.973Z,98423.84
2022-10-22T10:59:54.797Z,98426.19
2022-10-22T11:04:49.390Z,98433.03
2022-10-22T11:09:55.194Z,98437.44
2022-10-22T11:14:59.676Z,98435.88
2022-10-22T11:19:59.132Z,98444.94
2022-10-22T11:25:12.449Z,98446.63
2022-10-22T11:30:11.617Z,98463.09
2022-10-22T11:35:07.276Z,98462.38
2022-10-22T11:40:02.381Z,98461.00
2022-10-22T11:45:15.988Z,98454.19
2022-10-22T11:50:22.795Z,98473.41
2022-10-22T11:55:52.169Z,98464.53
2022-10-22T12:00:48.748Z,98468.78
2022-10-22T12:05:40.426Z,98472.28
2022-10-22T12:11:00.508Z,98469.78
2022-10-22T12:15:57.623Z,98475.56
2022-10-22T12:20:53.963Z,98476.16
2022-10-22T12:25:45.557Z,98465.13
2022-10-22T12:30:37.375Z,98450.50
2022-10-22T12:35:32.768Z,98465.63
2022-10-22T12:40:26.050Z,98462.38
2022-10-22T12:45:18.544Z,98460.03
2022-10-22T12:50:18.156Z,98467.72
2022-10-22T12:55:19.705Z,98465.78
2022-10-22T13:00:32.446Z,98463.88
2022-10-22T13:05:27.852Z,98463.59
2022-10-22T13:10:19.601Z,98464.34
2022-10-22T13:15:34.701Z,98468.44
2022-10-22T13:20:26.302Z,98464.59
2022-10-22T13:25:21.033Z,98484.09
2022-10-22T13:30:33.044Z,98463.09
2022-10-22T13:35:28.371Z,98472.13
2022-10-22T13:40:20.508Z,98465.88
2022-10-22T13:45:13.904Z,98476.84
2022-10-22T13:50:13.903Z,98470.28
2022-10-22T13:55:14.419Z,98468.28
2022-10-22T14:00:06.833Z,98471.75
2022-10-22T14:05:03.226Z,98476.41
2022-10-22T14:09:54.868Z,98475.34
2022-10-22T14:14:46.662Z,98469.09
2022-10-22T14:19:38.381Z,98465.84
2022-10-22T14:24:29.958Z,98464.47
2022-10-22T14:29:21.605Z,98469.44
2022-10-22T14:34:15.654Z,98462.09
2022-10-22T14:39:07.287Z,98457.47
2022-10-22T14:44:00.038Z,98459.97
2022-10-22T14:48:52.118Z,98464.38
2022-10-22T14:53:44.635Z,98457.81
2022-10-22T14:58:36.271Z,98451.81
2022-10-22T15:03:27.921Z,98455.66
2022-10-22T15:08:21.065Z,98454.84
2022-10-22T15:13:13.026Z,98461.69
2022-10-22T15:18:04.817Z,98465.00
2022-10-22T15:22:56.870Z,98469.91
2022-10-22T15:27:50.383Z,98467.16
2022-10-22T15:32:43.642Z,98470.50
2022-10-22T15:37:37.899Z,98463.72
2022-10-22T15:42:29.742Z,98459.34
2022-10-22T15:47:22.803Z,98465.66
2022-10-22T15:52:14.819Z,98459.63
2022-10-22T15:57:08.791Z,98453.91
2022-10-22T16:02:00.387Z,98455.59
2022-10-22T16:06:53.772Z,98453.97
2022-10-22T16:11:46.900Z,98455.16
2022-10-22T16:16:43.476Z,98454.66
2022-10-22T16:21:35.221Z,98452.81
2022-10-22T16:26:26.825Z,98444.91
2022-10-22T16:31:21.934Z,98451.50
2022-10-22T16:36:18.071Z,98460.00
2022-10-22T16:41:18.606Z,98458.41
2022-10-22T16:46:11.234Z,98455.16
2022-10-22T16:51:07.936Z,98454.88
2022-10-22T16:55:59.620Z,98449.72
2022-10-22T17:00:51.396Z,98446.16
2022-10-22T17:05:43.541Z,98455.72
2022-10-22T17:10:37.371Z,98459.81
2022-10-22T17:15:29.060Z,98472.09
2022-10-22T17:20:21.496Z,98472.09
2022-10-22T17:25:15.785Z,98480.00
2022-10-22T17:30:08.798Z,98487.63
2022-10-22T17:35:01.694Z,98491.72
2022-10-22T17:39:53.424Z,98508.88
2022-10-22T17:44:44.964Z,98507.53
2022-10-22T17:49:36.700Z,98509.97
2022-10-22T17:54:28.432Z,98500.72
2022-10-22T17:59:20.341Z,98509.16
2022-10-22T18:04:15.932Z,98506.69
2022-10-22T18:09:10.673Z,98509.69
2022-10-22T18:14:04.852Z,98509.97
2022-10-22T18:18:57.620Z,98509.44
2022-10-22T18:23:49.396Z,98499.34
2022-10-22T18:28:41.261Z,98515.66
2022-10-22T18:33:33.383Z,98514.00
2022-10-22T18:38:25.236Z,98520.00
2022-10-22T18:43:17.883Z,98521.66
2022-10-22T18:48:09.792Z,98518.66
2022-10-22T18:53:01.449Z,98513.19
2022-10-22T18:57:53.285Z,98521.09
2022-10-22T19:02:45.120Z,98525.97
2022-10-22T19:07:36.839Z,98522.19
2022-10-22T19:12:28.519Z,98535.81
2022-10-22T19:17:20.178Z,98530.34
2022-10-22T19:22:12.317Z,98515.63
2022-10-22T19:27:04.473Z,98526.25
2022-10-22T19:31:56.280Z,98513.41
2022-10-22T19:36:48.738Z,98511.78
2022-10-22T19:41:40.978Z,98519.41
2022-10-22T19:46:33.233Z,98510.13
2022-10-22T19:51:28.065Z,98513.94
2022-10-22T19:56:21.014Z,98510.66
2022-10-22T20:01:15.830Z,98515.81
2022-10-22T20:06:09.810Z,98505.19
2022-10-22T20:11:02.526Z,98508.72
2022-10-22T20:15:54.200Z,98506.84
2022-10-22T20:20:46.209Z,98504.13
2022-10-22T20:25:43.136Z,98501.13
2022-10-22T20:30:35.565Z,98497.28
2022-10-22T20:35:27.729Z,98503.84
2022-10-22T20:40:20.371Z,98514.22
2022-10-22T20:45:12.642Z,98514.22
2022-10-22T20:50:05.117Z,98520.47
2022-10-22T20:54:56.996Z,98512.84
2022-10-22T20:59:48.926Z,98532.22
2022-10-22T21:04:42.787Z,98537.41
2022-10-22T21:09:37.479Z,98534.94
2022-10-22T21:14:30.202Z,98531.41
2022-10-22T21:19:23.208Z,98542.59
2022-10-22T21:24:15.136Z,98543.13
2022-10-22T21:29:07.581Z,98534.69
2022-10-22T21:33:59.575Z,98533.63
2022-10-22T21:38:52.214Z,98521.63
2022-10-22T21:43:45.389Z,98520.25
2022-10-22T21:48:38.047Z,98518.38
2022-10-22T21:53:29.659Z,98509.94
2022-10-22T21:58:21.388Z,98512.94
2022-10-22T22:03:12.936Z,98513.19
2022-10-22T22:08:04.794Z,98509.63
2022-10-22T22:12:56.702Z,98506.09
2022-10-22T22:17:48.427Z,98502.84
2022-10-22T22:22:40.250Z,98509.34
2022-10-22T22:27:32.194Z,98504.19
2022-10-22T22:32:23.896Z,98511.81
2022-10-22T22:37:15.521Z,98500.91
2022-10-22T22:42:07.097Z,98512.09
2022-10-22T22:46:58.760Z,98495.19
2022-10-22T22:51:50.467Z,98496.81
2022-10-22T22:56:42.116Z,98490.28
2022-10-22T23:01:36.856Z,98484.84
2022-10-22T23:06:33.108Z,98481.31
2022-10-22T23:11:26.775Z,98470.41
2022-10-22T23:16:20.923Z,98475.00
2022-10-22T23:21:14.608Z,98475.84
2022-10-22T23:26:06.232Z,98459.50
2022-10-22T23:30:58.006Z,98452.41
2022-10-22T23:35:49.738Z,98460.56
2022-10-22T23:40:41.457Z,98449.69
2022-10-22T23:45:36.704Z,98443.69
2022-10-22T23:50:28.734Z,98455.41
2022-10-22T23:55:20.522Z,98452.94
